createdAt,value
2022-10-14T00:01:05.097Z,4.03
2022-10-14T00:05:07.295Z,3.97
2022-10-14T00:09:10.223Z,4.07
2022-10-14T00:13:11.841Z,4.28
2022-10-14T00:17:13.488Z,4.30
2022-10-14T00:21:15.630Z,4.40
2022-10-14T00:25:17.262Z,4.32
2022-10-14T00:29:19.410Z,5.10
2022-10-14T00:33:21.227Z,4.22
2022-10-14T00:37:23.238Z,3.95
2022-10-14T00:41:31.728Z,5.15
2022-10-14T00:45:34.778Z,4.43
2022-10-14T00:49:40.710Z,3.50
2022-10-14T00:53:43.673Z,4.13
2022-10-14T00:57:45.805Z,3.35
2022-10-14T01:01:47.695Z,3.67
2022-10-14T01:06:13.291Z,3.63
2022-10-14T01:10:26.581Z,4.47
2022-10-14T01:14:43.253Z,3.90
2022-10-14T01:19:15.393Z,4.10
2022-10-14T01:23:40.417Z,3.35
2022-10-14T01:28:01.076Z,3.67
2022-10-14T01:32:26.841Z,4.65
2022-10-14T01:36:42.151Z,3.90
2022-10-14T01:40:55.822Z,5.70
2022-10-14T01:45:04.944Z,3.25
2022-10-14T01:49:11.084Z,4.22
2022-10-14T01:53:23.441Z,3.70
2022-10-14T01:57:29.370Z,4.15
2022-10-14T02:01:31.259Z,3.70
2022-10-14T02:05:43.149Z,5.70
2022-10-14T02:10:10.824Z,3.58
2022-10-14T02:14:39.262Z,4.25
2022-10-14T02:18:44.750Z,4.05
2022-10-14T02:22:58.014Z,3.85
2022-10-14T02:27:04.481Z,3.55
2022-10-14T02:31:10.491Z,3.70
2022-10-14T02:35:15.230Z,3.88
2022-10-14T02:39:30.594Z,3.70
2022-10-14T02:43:32.357Z,4.18
2022-10-14T02:47:34.222Z,3.38
2022-10-14T02:51:35.840Z,3.45
2022-10-14T02:55:37.530Z,3.85
2022-10-14T02:59:39.685Z,3.75
2022-10-14T03:03:41.274Z,3.58
2022-10-14T03:07:42.874Z,3.85
2022-10-14T03:11:44.475Z,3.83
2022-10-14T03:15:50.377Z,3.40
2022-10-14T03:19:51.954Z,3.78
2022-10-14T03:23:53.615Z,3.30
2022-10-14T03:27:55.185Z,3.30
2022-10-14T03:31:56.792Z,3.90
2022-10-14T03:35:58.480Z,3.97
2022-10-14T03:40:00.063Z,4.45
2022-10-14T03:44:01.811Z,2.90
2022-10-14T03:48:03.631Z,3.90
2022-10-14T03:52:05.230Z,3.90
2022-10-14T03:56:07.323Z,4.10
2022-10-14T04:00:09.669Z,3.80
2022-10-14T04:04:11.350Z,4.05
2022-10-14T04:08:13.009Z,3.65
2022-10-14T04:12:14.916Z,3.45
2022-10-14T04:16:16.586Z,3.28
2022-10-14T04:20:18.337Z,3.67
2022-10-14T04:24:19.918Z,3.22
2022-10-14T04:28:21.722Z,3.88
2022-10-14T04:32:23.828Z,3.45
2022-10-14T04:36:25.630Z,6.10
2022-10-14T04:40:27.865Z,3.45
2022-10-14T04:44:29.518Z,3.40
2022-10-14T04:48:31.262Z,3.35
2022-10-14T04:52:32.961Z,3.20
2022-10-14T04:56:36.678Z,3.30
2022-10-14T05:00:39.363Z,4.15
2022-10-14T05:04:40.932Z,3.42
2022-10-14T05:08:42.557Z,3.28
2022-10-14T05:12:44.254Z,3.38
2022-10-14T05:16:45.849Z,4.05
2022-10-14T05:20:47.470Z,3.65
2022-10-14T05:24:49.059Z,3.58
2022-10-14T05:28:52.335Z,4.00
2022-10-14T05:32:54.070Z,3.92
2022-10-14T05:36:56.227Z,4.90
2022-10-14T05:40:58.003Z,8.23
2022-10-14T05:44:59.626Z,5.13
2022-10-14T05:49:05.774Z,3.72
2022-10-14T05:53:07.375Z,5.38
2022-10-14T05:57:09.613Z,6.35
2022-10-14T06:01:12.113Z,3.65
2022-10-14T06:05:13.842Z,6.45
2022-10-14T06:09:15.590Z,6.70
2022-10-14T06:13:17.481Z,6.68
2022-10-14T06:17:19.108Z,5.15
2022-10-14T06:21:20.720Z,6.28
2022-10-14T06:25:22.397Z,5.90
2022-10-14T06:29:31.194Z,5.75
2022-10-14T06:33:32.993Z,6.13
2022-10-14T06:37:34.636Z,7.97
2022-10-14T06:41:36.251Z,7.13
2022-10-14T06:45:37.863Z,4.80
2022-10-14T06:49:40.169Z,6.72
2022-10-14T06:53:42.472Z,6.22
2022-10-14T06:57:44.364Z,5.85
2022-10-14T07:01:46.079Z,6.15
2022-10-14T07:05:47.745Z,9.00
2022-10-14T07:09:49.496Z,6.22
2022-10-14T07:13:51.083Z,6.93
2022-10-14T07:17:52.688Z,6.28
2022-10-14T07:21:54.418Z,5.85
2022-10-14T07:25:57.497Z,7.30
2022-10-14T07:29:59.178Z,6.68
2022-10-14T07:34:04.597Z,7.95
2022-10-14T07:38:06.359Z,7.40
2022-10-14T07:42:07.986Z,5.20
2022-10-14T07:46:09.786Z,6.22
2022-10-14T07:50:11.876Z,6.35
2022-10-14T07:54:18.613Z,9.50
2022-10-14T07:58:22.407Z,7.28
2022-10-14T08:02:24.160Z,6.72
2022-10-14T08:06:26.490Z,6.68
2022-10-14T08:10:28.219Z,6.30
2022-10-14T08:14:29.926Z,8.52
2022-10-14T08:18:31.505Z,8.15
2022-10-14T08:22:33.102Z,8.93
2022-10-14T08:26:40.671Z,8.07
2022-10-14T08:30:42.345Z,7.30
2022-10-14T08:34:43.974Z,8.00
2022-10-14T08:38:45.814Z,9.15
2022-10-14T08:43:05.560Z,8.90
2022-10-14T08:47:13.590Z,8.15
2022-10-14T08:51:19.188Z,5.82
2022-10-14T08:55:44.893Z,6.70
2022-10-14T08:59:47.039Z,8.00
2022-10-14T09:03:49.893Z,7.18
2022-10-14T09:07:54.920Z,5.25
2022-10-14T09:11:59.624Z,6.63
2022-10-14T09:16:08.157Z,5.80
2022-10-14T09:20:21.886Z,5.68
2022-10-14T09:24:26.993Z,5.93
2022-10-14T09:28:48.874Z,6.15
2022-10-14T09:32:53.612Z,7.40
2022-10-14T09:36:58.686Z,5.72
2022-10-14T09:41:00.812Z,7.60
2022-10-14T09:45:08.489Z,6.90
2022-10-14T09:49:20.131Z,5.20
2022-10-14T09:53:42.031Z,6.28
2022-10-14T09:57:44.531Z,6.35
2022-10-14T10:01:59.229Z,5.40
2022-10-14T10:06:06.685Z,5.78
2022-10-14T10:10:22.063Z,5.43
2022-10-14T10:14:32.972Z,5.70
2022-10-14T10:18:34.670Z,4.35
2022-10-14T10:22:38.716Z,5.25
2022-10-14T10:26:40.325Z,4.82
2022-10-14T10:31:24.320Z,5.68
2022-10-14T10:35:33.869Z,4.65
2022-10-14T10:39:40.822Z,4.32
2022-10-14T10:44:00.522Z,4.53
2022-10-14T10:48:14.523Z,4.75
2022-10-14T10:52:42.065Z,4.82
2022-10-14T10:56:57.620Z,4.50
2022-10-14T11:01:12.013Z,6.37
2022-10-14T11:05:22.063Z,3.65
2022-10-14T11:09:57.780Z,5.15
2022-10-14T11:14:27.356Z,3.95
2022-10-14T11:18:45.300Z,4.65
2022-10-14T11:23:09.932Z,6.47
2022-10-14T11:27:24.902Z,4.10
2022-10-14T11:31:45.982Z,5.20
2022-10-14T11:36:07.453Z,3.72
2022-10-14T11:40:59.443Z,3.90
2022-10-14T11:45:31.838Z,4.28
2022-10-14T11:49:42.782Z,3.20
2022-10-14T11:54:08.112Z,3.20
2022-10-14T11:58:17.342Z,5.57
2022-10-14T12:02:32.346Z,7.35
2022-10-14T12:06:55.674Z,4.55
2022-10-14T12:11:12.951Z,3.85
2022-10-14T12:15:20.344Z,4.47
2022-10-14T12:19:28.389Z,3.13
2022-10-14T12:23:38.250Z,3.10
2022-10-14T12:27:40.754Z,5.10
2022-10-14T12:31:49.648Z,4.15
2022-10-14T12:36:00.978Z,3.50
2022-10-14T12:40:02.808Z,4.05
2022-10-14T12:44:12.695Z,2.83
2022-10-14T12:48:23.460Z,3.58
2022-10-14T12:52:31.937Z,5.60
2022-10-14T12:56:37.709Z,4.65
2022-10-14T13:00:40.923Z,3.50
2022-10-14T13:04:54.350Z,4.00
2022-10-14T13:09:17.215Z,5.05
2022-10-14T13:14:00.861Z,4.07
2022-10-14T13:18:40.846Z,4.80
2022-10-14T13:22:43.502Z,5.05
2022-10-14T13:26:53.935Z,3.90
2022-10-14T13:31:03.474Z,5.63
2022-10-14T13:35:26.390Z,6.68
2022-10-14T13:39:28.182Z,6.93
2022-10-14T13:43:42.424Z,8.13
2022-10-14T13:47:48.304Z,6.32
2022-10-14T13:51:56.606Z,6.70
2022-10-14T13:55:58.644Z,6.53
2022-10-14T14:04:29.645Z,6.95
2022-10-14T14:08:41.021Z,6.47
2022-10-14T14:12:44.138Z,6.97
2022-10-14T14:16:58.692Z,5.75
2022-10-14T14:21:01.098Z,7.55
2022-10-14T14:25:36.691Z,6.75
2022-10-14T14:29:45.907Z,6.55
2022-10-14T14:33:48.435Z,9.82
2022-10-14T14:37:56.095Z,7.47
2022-10-14T14:42:00.394Z,5.65
2022-10-14T14:46:02.906Z,5.70
2022-10-14T14:50:29.012Z,4.63
2022-10-14T14:54:28.903Z,6.28
2022-10-14T14:58:44.637Z,5.65
2022-10-14T15:02:48.759Z,7.05
2022-10-14T15:07:08.644Z,4.80
2022-10-14T15:11:11.734Z,5.65
2022-10-14T15:15:27.084Z,5.72
2022-10-14T15:19:35.568Z,5.65
2022-10-14T15:23:46.104Z,7.90
2022-10-14T15:27:54.728Z,5.32
2022-10-14T15:32:04.995Z,7.32
2022-10-14T15:36:10.361Z,5.15
2022-10-14T15:40:13.633Z,5.00
2022-10-14T15:44:15.394Z,6.25
2022-10-14T15:48:19.795Z,4.25
2022-10-14T15:52:24.446Z,5.10
2022-10-14T15:56:29.627Z,5.40
2022-10-14T16:00:31.705Z,5.05
2022-10-14T16:04:33.462Z,5.68
2022-10-14T16:08:35.087Z,4.68
2022-10-14T16:12:36.748Z,5.55
2022-10-14T16:16:42.977Z,5.28
2022-10-14T16:20:45.483Z,4.93
2022-10-14T16:24:47.270Z,5.20
2022-10-14T16:28:49.080Z,5.47
2022-10-14T16:32:51.070Z,6.07
2022-10-14T16:36:52.805Z,6.10
2022-10-14T16:40:59.677Z,6.20
2022-10-14T16:45:01.382Z,4.13
2022-10-14T16:49:03.658Z,4.85
2022-10-14T16:53:23.765Z,4.05
2022-10-14T16:57:25.522Z,5.43
2022-10-14T17:01:27.634Z,4.28
2022-10-14T17:05:29.283Z,5.55
2022-10-14T17:09:30.870Z,4.63
2022-10-14T17:13:32.460Z,4.18
2022-10-14T17:17:34.142Z,5.50
2022-10-14T17:21:35.709Z,10.15
2022-10-14T17:25:37.352Z,8.88
2022-10-14T17:29:39.111Z,4.18
2022-10-14T17:33:41.731Z,8.38
2022-10-14T17:37:43.305Z,6.15
2022-10-14T17:41:45.853Z,6.05
2022-10-14T17:45:47.551Z,4.95
2022-10-14T17:49:50.565Z,6.68
2022-10-14T17:53:58.113Z,5.90
2022-10-14T17:57:59.799Z,9.00
2022-10-14T18:02:03.040Z,3.72
2022-10-14T18:06:13.510Z,4.03
2022-10-14T18:10:15.148Z,3.33
2022-10-14T18:14:16.775Z,5.03
2022-10-14T18:18:18.713Z,4.95
2022-10-14T18:22:20.352Z,5.57
2022-10-14T18:30:47.189Z,3.20
2022-10-14T18:34:48.757Z,4.45
2022-10-14T18:39:01.577Z,3.22
2022-10-14T18:43:05.387Z,4.38
2022-10-14T18:47:07.429Z,3.35
2022-10-14T18:51:10.889Z,2.72
2022-10-14T18:55:12.527Z,3.50
2022-10-14T18:59:17.784Z,3.33
2022-10-14T19:03:19.610Z,2.60
2022-10-14T19:07:21.264Z,3.25
2022-10-14T19:11:24.508Z,2.67
2022-10-14T19:15:26.442Z,2.53
2022-10-14T19:19:28.105Z,4.07
2022-10-14T19:23:29.722Z,3.20
2022-10-14T19:27:31.377Z,6.53
2022-10-14T19:31:35.811Z,4.45
2022-10-14T19:35:37.376Z,3.15
2022-10-14T19:39:39.888Z,4.47
2022-10-14T19:43:41.553Z,4.55
2022-10-14T19:47:43.156Z,5.00
2022-10-14T19:51:44.875Z,4.60
2022-10-14T19:55:46.457Z,3.40
2022-10-14T19:59:48.080Z,6.55
2022-10-14T20:03:50.320Z,4.05
2022-10-14T20:07:54.407Z,4.15
2022-10-14T20:11:56.127Z,4.40
2022-10-14T20:16:00.603Z,3.47
2022-10-14T20:20:02.220Z,3.55
2022-10-14T20:24:04.247Z,2.80
2022-10-14T20:28:05.850Z,2.85
2022-10-14T20:32:07.818Z,4.00
2022-10-14T20:36:17.066Z,5.63
2022-10-14T20:40:19.001Z,3.75
2022-10-14T20:44:23.829Z,5.07
2022-10-14T20:48:25.903Z,3.60
2022-10-14T20:52:28.885Z,4.03
2022-10-14T20:56:31.784Z,4.80
2022-10-14T21:00:33.394Z,5.18
2022-10-14T21:04:35.023Z,3.85
2022-10-14T21:08:37.318Z,3.47
2022-10-14T21:12:38.922Z,5.00
2022-10-14T21:16:42.136Z,3.15
2022-10-14T21:20:43.757Z,4.60
2022-10-14T21:24:45.391Z,4.95
2022-10-14T21:28:47.227Z,5.38
2022-10-14T21:32:49.025Z,4.03
2022-10-14T21:36:50.967Z,3.65
2022-10-14T21:40:52.542Z,3.03
2022-10-14T21:44:54.112Z,2.65
2022-10-14T21:48:57.566Z,2.42
2022-10-14T21:52:59.881Z,3.13
2022-10-14T21:57:01.502Z,4.47
2022-10-14T22:01:15.303Z,3.28
2022-10-14T22:05:16.998Z,4.10
2022-10-14T22:09:19.064Z,3.22
2022-10-14T22:13:20.729Z,2.60
2022-10-14T22:17:22.576Z,3.95
2022-10-14T22:21:26.055Z,3.35
2022-10-14T22:25:27.649Z,3.20
2022-10-14T22:29:29.364Z,2.90
2022-10-14T22:33:30.987Z,2.83
2022-10-14T22:37:32.616Z,2.35
2022-10-14T22:41:35.840Z,5.75
2022-10-14T22:45:37.694Z,2.55
2022-10-14T22:49:39.363Z,4.28
2022-10-14T22:53:41.917Z,2.88
2022-10-14T22:57:43.540Z,3.85
2022-10-14T23:01:45.142Z,2.33
2022-10-14T23:05:47.843Z,3.63
2022-10-14T23:09:49.415Z,2.55
2022-10-14T23:13:51.490Z,4.13
2022-10-14T23:17:53.069Z,3.67
2022-10-14T23:21:54.681Z,2.72
2022-10-14T23:25:56.238Z,3.13
2022-10-14T23:29:57.806Z,2.47
2022-10-14T23:34:01.834Z,2.58
2022-10-14T23:38:03.855Z,2.80
2022-10-14T23:42:05.500Z,2.45
2022-10-14T23:46:07.998Z,2.38
2022-10-14T23:50:09.786Z,2.97
2022-10-14T23:54:11.417Z,3.90
2022-10-14T23:58:13.329Z,2.13
